Estación Meteorológica Peña el Pijo (Robertgarden) [ 02/03/23 03:56:18 CET ]

Fecha Hora Presion(HPa) Temp (°C) Humedad % Rocio (°C) Viento ( m/s) Direccion Lluvia 1Hora(mm) Lluvia 24H(mm) LLuvia Total(mm)
2012-Oct-13 01:01:14 1009.700 9.9 83 7.1         178.19
2012-Oct-13 02:01:13 1009.000 8.7 85 6.3         178.19
2012-Oct-13 03:01:42 1008.800 8.6 88 6.7         178.19
2012-Oct-13 04:05:15 1008.300 9.3 87 7.2         178.19
2012-Oct-13 05:01:17 1008.200 8.9 87 6.9         178.19
2012-Oct-13 06:01:12 1008.200 8.5 88 6.7         178.19
2012-Oct-13 07:01:23 1008.400 8.4 89 6.7         178.19
2012-Oct-13 08:01:18 1008.500 8.4 90 6.9         178.19
2012-Oct-13 09:01:16 1008.800 8.8 90 7.3         178.19
2012-Oct-13 10:01:16 1009.400 10.1 91 8.7         178.19
2012-Oct-13 11:01:13 1009.400 12.5 84 9.8         178.19
2012-Oct-13 12:01:17 1009.600 14.7 75 10.3         178.19
2012-Oct-13 13:01:16 1009.000 16.6 61 9.1         178.19
2012-Oct-13 14:01:14 1008.600 19.9 48 8.6         178.19
2012-Oct-13 15:01:14 1007.900 20.9 41 7.1         178.19
2012-Oct-13 16:01:18 1007.900 20.2 44 7.5         178.19
2012-Oct-13 17:01:18 1007.600 18.3 45 6.1         178.19
2012-Oct-13 18:01:13 1007.900 18.4 44 5.8         178.19
2012-Oct-13 19:01:13 1008.200 15.8 51 5.7         178.19
2012-Oct-13 20:01:13 1008.700 13.7 57 5.3         178.19
2012-Oct-13 21:01:16 1009.200 10.5 68 4.8         178.19
2012-Oct-13 22:01:13 1009.700 9.6 74 5.2         178.19
2012-Oct-13 23:01:16 1009.600 8.3 78 4.7         178.19

Temperatura Máxima:20°    Temperatura Mínima:
Presión Máxima:1009.700 Hpa    Presión Mínima:1007.600 Hpa


Volver